Home > Products > Valid Products > TAF

000
FTUS45 KCYS 311130
TAFLAR
TAF
KLAR 311130Z 3112/0112 VRB05KT P6SM OVC060
     FM312100 VRB04KT P6SM SCT030 OVC050
     FM010400 34010KT P6SM OVC015=



000
FTUS45 KCYS 311130
TAFRWL
TAF
KRWL 311130Z 3112/0112 04007KT P6SM OVC040
     FM312000 29013KT P6SM SCT080
     FM010600 34009KT P6SM SCT009 BKN020=



000
FTUS45 KCYS 311130
TAFLAR
TAF
KLAR 311130Z 3112/0112 VRB05KT P6SM OVC060
     FM312100 VRB04KT P6SM SCT030 OVC050
     FM010400 34010KT P6SM OVC015=



000
FTUS45 KCYS 311130
TAFCYS
TAF
KCYS 311130Z 3112/0112 34007KT P6SM OVC070
     FM311800 35008KT P6SM OVC035
     FM010300 34013G20KT P6SM -SHSN OVC020=



000
FTUS45 KCYS 311130
TAFRWL
TAF
KRWL 311130Z 3112/0112 04007KT P6SM OVC040
     FM312000 29013KT P6SM SCT080
     FM010600 34009KT P6SM SCT009 BKN020=



000
FTUS45 KCYS 311130
TAFCYS
TAF
KCYS 311130Z 3112/0112 34007KT P6SM OVC070
     FM311800 35008KT P6SM OVC035
     FM010300 34013G20KT P6SM -SHSN OVC020=



000
FTUS45 KCYS 310540
TAFCYS
TAF
KCYS 310540Z 3106/0106 34008KT P6SM OVC120
     FM311800 35008KT P6SM OVC025
     FM010000 34011KT P6SM BKN050=



000
FTUS45 KCYS 310540
TAFRWL
TAF
KRWL 310540Z 3106/0106 04007KT P6SM OVC040
     FM311400 36005KT P6SM BKN020
     FM312000 29012G18KT P6SM SKC
     FM010100 34009KT P6SM SKC=



000
FTUS45 KCYS 310540
TAFLAR
TAF
KLAR 310540Z 3106/0106 VRB05KT P6SM BKN050 OVC080
     FM311600 VRB04KT P6SM SCT025 OVC050
     FM312300 34011KT P6SM SCT050=



000
FTUS45 KCYS 310540
TAFLAR
TAF
KLAR 310540Z 3106/0106 VRB05KT P6SM BKN050 OVC080
     FM311600 VRB04KT P6SM SCT025 OVC050
     FM312300 34011KT P6SM SCT050=



000
FTUS45 KCYS 310540
TAFRWL
TAF
KRWL 310540Z 3106/0106 04007KT P6SM OVC040
     FM311400 36005KT P6SM BKN020
     FM312000 29012G18KT P6SM SKC
     FM010100 34009KT P6SM SKC=



000
FTUS45 KCYS 310540
TAFCYS
TAF
KCYS 310540Z 3106/0106 34008KT P6SM OVC120
     FM311800 35008KT P6SM OVC025
     FM010000 34011KT P6SM BKN050=



000
FTUS45 KCYS 310401 AAA
TAFRWL
TAF AMD
KRWL 310401Z 3104/3124 04007KT P6SM OVC040
     FM311400 36005KT P6SM BKN020
     FM312000 29012G18KT P6SM SKC=



000
FTUS45 KCYS 310401 AAA
TAFRWL
TAF AMD
KRWL 310401Z 3104/3124 04007KT P6SM OVC040
     FM311400 36005KT P6SM BKN020
     FM312000 29012G18KT P6SM SKC=



000
FTUS45 KCYS 310047 CCA
TAFRWL
TAF COR
KRWL 310047Z 3100/3124 03007KT P6SM SCT020 OVC100
     FM310300 04007KT 4SM BR SCT007 OVC040
     FM311400 36005KT P6SM BKN020
     FM312000 29012G18KT P6SM SKC=



000
FTUS45 KCYS 310047 CCA
TAFRWL
TAF COR
KRWL 310047Z 3100/3124 03007KT P6SM SCT020 OVC100
     FM310300 04007KT 4SM BR SCT007 OVC040
     FM311400 36005KT P6SM BKN020
     FM312000 29012G18KT P6SM SKC=



000
FTUS45 KCYS 302340
TAFLAR
TAF
KLAR 302340Z 3100/3124 05007KT P6SM BKN050 OVC100
     FM311600 VRB04KT P6SM SCT025 OVC050=



000
FTUS45 KCYS 302340
TAFRWL
TAF
KRWL 302340Z 3100/3124 03007KT P6SM BKN020 OVC100
     FM310300 04007KT 4SM BR SCT007 OVC040
     FM311400 36005KT P6SM BKN020
     FM312000 29012G18KT P6SM SKC=



000
FTUS45 KCYS 302340
TAFCYS
TAF
KCYS 302340Z 3100/3124 04008KT P6SM OVC120
     FM310600 34008KT P6SM OVC120
     FM311800 02004KT P6SM OVC040=



000
FTUS45 KCYS 302340
TAFCYS
TAF
KCYS 302340Z 3100/3124 04008KT P6SM OVC120
     FM310600 34008KT P6SM OVC120
     FM311800 02004KT P6SM OVC040=



000
FTUS45 KCYS 302340
TAFLAR
TAF
KLAR 302340Z 3100/3124 05007KT P6SM BKN050 OVC100
     FM311600 VRB04KT P6SM SCT025 OVC050=



000
FTUS45 KCYS 302340
TAFRWL
TAF
KRWL 302340Z 3100/3124 03007KT P6SM BKN020 OVC100
     FM310300 04007KT 4SM BR SCT007 OVC040
     FM311400 36005KT P6SM BKN020
     FM312000 29012G18KT P6SM SKC=



000
FTUS45 KCYS 302140 AAD
TAFCYS
TAF AMD
KCYS 302140Z 3022/3118 04012G20KT P6SM BKN150
     FM310100 34009KT P6SM SCT025 OVC100
     FM311000 01010KT P6SM OVC100=



000
FTUS45 KCYS 302139 AAC
TAFRWL
TAF AMD
KRWL 302139Z 3022/3118 36010KT P6SM SCT035 BKN150
     FM310300 04007KT 4SM BR SCT007 OVC050
     FM311200 36005KT P6SM BKN100=



000
FTUS45 KCYS 302139 AAC
TAFRWL
TAF AMD
KRWL 302139Z 3022/3118 36010KT P6SM SCT035 BKN150
     FM310300 04007KT 4SM BR SCT007 OVC050
     FM311200 36005KT P6SM BKN100=



000
FTUS45 KCYS 301859 AAB
TAFRWL
TAF AMD
KRWL 301859Z 3019/3118 VRB04KT P6SM BKN035
      TEMPO 3019/3023 2SM -SN BKN015
     FM310200 04007KT 4SM BR SCT007 OVC050
     FM311200 36005KT P6SM BKN100=



000
FTUS45 KCYS 301859 AAB
TAFRWL
TAF AMD
KRWL 301859Z 3019/3118 VRB04KT P6SM BKN035
      TEMPO 3019/3023 2SM -SN BKN015
     FM310200 04007KT 4SM BR SCT007 OVC050
     FM311200 36005KT P6SM BKN100=



000
FTUS45 KCYS 301806 AAA
TAFRWL
TAF AMD
KRWL 301806Z 3018/3118 VRB04KT P6SM BKN020
      TEMPO 3018/3022 2SM -SN BKN010
     FM310200 04007KT 4SM BR SCT007 OVC050
     FM311200 36005KT P6SM BKN100=



000
FTUS45 KCYS 301806 AAA
TAFRWL
TAF AMD
KRWL 301806Z 3018/3118 VRB04KT P6SM BKN020
      TEMPO 3018/3022 2SM -SN BKN010
     FM310200 04007KT 4SM BR SCT007 OVC050
     FM311200 36005KT P6SM BKN100=



000
FTUS45 KCYS 301732
TAFLAR
TAF
KLAR 301732Z 3018/3118 34010KT P6SM SCT050 OVC100
     FM302100 03010KT P6SM BKN050 OVC100
     FM311200 12005KT P6SM SCT025 OVC050=



000
FTUS45 KCYS 301732
TAFCYS
TAF
KCYS 301732Z 3018/3118 36012G20KT P6SM BKN150
     FM310000 34009KT P6SM SCT025 OVC100
     FM311000 01010KT P6SM OVC100=



000
FTUS45 KCYS 301732
TAFRWL
TAF
KRWL 301732Z 3018/3118 VRB04KT P6SM BKN015
     FM310200 04007KT 4SM BR SCT007 OVC050
     FM311200 36005KT P6SM BKN100=



000
FTUS45 KCYS 301732
TAFCYS
TAF
KCYS 301732Z 3018/3118 36012G20KT P6SM BKN150
     FM310000 34009KT P6SM SCT025 OVC100
     FM311000 01010KT P6SM OVC100=



000
FTUS45 KCYS 301732
TAFLAR
TAF
KLAR 301732Z 3018/3118 34010KT P6SM SCT050 OVC100
     FM302100 03010KT P6SM BKN050 OVC100
     FM311200 12005KT P6SM SCT025 OVC050=



000
FTUS45 KCYS 301732
TAFRWL
TAF
KRWL 301732Z 3018/3118 VRB04KT P6SM BKN015
     FM310200 04007KT 4SM BR SCT007 OVC050
     FM311200 36005KT P6SM BKN100=



000
FTUS45 KCYS 301552 AAB
TAFRWL
TAF AMD
KRWL 301552Z 3016/3112 VRB04KT P6SM BKN015
     FM310000 04007KT 4SM BR SCT007 OVC015=



000
FTUS45 KCYS 301552 AAB
TAFRWL
TAF AMD
KRWL 301552Z 3016/3112 VRB04KT P6SM BKN015
     FM310000 04007KT 4SM BR SCT007 OVC015=



000
FTUS45 KCYS 301500 AAA
TAFRWL
TAF AMD
KRWL 301500Z 3015/3112 VRB04KT P6SM BKN025
     FM310000 04007KT 4SM BR SCT007 OVC015=



000
FTUS45 KCYS 301147 CCB
TAFCYS
TAF COR
KCYS 301147Z 3012/3112 26004KT P6SM BKN150
     FM301800 01009KT P6SM OVC100
     FM311000 36007KT P6SM BKN020 OVC100=



000
FTUS45 KCYS 301145 CCA
TAFLAR
TAF COR
KLAR 301145Z 3012/3112 VRB04KT P6SM OVC100
     FM301800 05007KT P6SM BKN050
     FM310800 02006KT P6SM BKN025 OVC050=



000
FTUS45 KCYS 301145 CCA
TAFLAR
TAF COR
KLAR 301145Z 3012/3112 VRB04KT P6SM OVC100
     FM301800 05007KT P6SM BKN050
     FM310800 02006KT P6SM BKN025 OVC050=



000
FTUS45 KCYS 301140
TAFRWL
TAF
KRWL 301140Z 3012/3112 00000KT P6SM BKN200
     FM301900 VRB04KT P6SM BKN025
     FM310000 04007KT 4SM BR SCT007 OVC015=



000
FTUS45 KCYS 301140
TAFCYS
TAF
KCYS 301140Z 3012/3112 26004KT P6SM BKN150
     FM301800 01009KT P6SM OVC100=



000
FTUS45 KCYS 301140
TAFCYS
TAF
KCYS 301140Z 3012/3112 26004KT P6SM BKN150
     FM301800 01009KT P6SM OVC100=



000
FTUS45 KCYS 301140
TAFRWL
TAF
KRWL 301140Z 3012/3112 00000KT P6SM BKN200
     FM301900 VRB04KT P6SM BKN025
     FM310000 04007KT 4SM BR SCT007 OVC015=



000
FTUS45 KCYS 301140
TAFLAR
TAF
KLAR 301140Z 3012/3112 VRB04KT P6SM OVC100
     FM301800 05007KT P6SM BKN050=



000
FTUS45 KCYS 301140
TAFLAR
TAF
KLAR 301140Z 3012/3112 VRB04KT P6SM OVC100
     FM301800 05007KT P6SM BKN050=



000
FTUS45 KCYS 300536
TAFRWL
TAF
KRWL 300536Z 3006/3106 00000KT P6SM BKN200
     FM301500 VRB04KT P6SM BKN025
     FM310000 04007KT 4SM BR SCT007 OVC015=



000
FTUS45 KCYS 300536
TAFCYS
TAF
KCYS 300536Z 3006/3106 24008KT P6SM BKN200
     FM301200 26004KT P6SM BKN150
     FM301800 01009KT P6SM OVC100=



000
FTUS45 KCYS 300536
TAFLAR
TAF
KLAR 300536Z 3006/3106 16014KT P6SM OVC200
     FM300800 17010KT P6SM BKN200
     FM301000 VRB04KT P6SM OVC100
     FM301800 05007KT P6SM BKN050=



000
FTUS45 KCYS 300536
TAFRWL
TAF
KRWL 300536Z 3006/3106 00000KT P6SM BKN200
     FM301500 VRB04KT P6SM BKN025
     FM310000 04007KT 4SM BR SCT007 OVC015=



000
FTUS45 KCYS 300536
TAFCYS
TAF
KCYS 300536Z 3006/3106 24008KT P6SM BKN200
     FM301200 26004KT P6SM BKN150
     FM301800 01009KT P6SM OVC100=



000
FTUS45 KCYS 300536
TAFLAR
TAF
KLAR 300536Z 3006/3106 16014KT P6SM OVC200
     FM300800 17010KT P6SM BKN200
     FM301000 VRB04KT P6SM OVC100
     FM301800 05007KT P6SM BKN050=



000
FTUS45 KCYS 292333
TAFRWL
TAF
KRWL 292333Z 3000/3024 11005KT P6SM SCT200
     FM301000 24005KT P6SM OVC080
     FM301800 04007KT P6SM OVC015=



000
FTUS45 KCYS 292333
TAFLAR
TAF
KLAR 292333Z 3000/3024 16005KT P6SM SCT200
     FM301000 18007KT P6SM OVC100
     FM301800 02004KT P6SM BKN025 OVC050=



000
FTUS45 KCYS 292333
TAFCYS
TAF
KCYS 292333Z 3000/3024 18007KT P6SM SCT200
     FM300400 24008KT P6SM BKN200
     FM301800 34008KT P6SM BKN050 OVC100=



000
FTUS45 KCYS 292333
TAFRWL
TAF
KRWL 292333Z 3000/3024 11005KT P6SM SCT200
     FM301000 24005KT P6SM OVC080
     FM301800 04007KT P6SM OVC015=



000
FTUS45 KCYS 292333
TAFLAR
TAF
KLAR 292333Z 3000/3024 16005KT P6SM SCT200
     FM301000 18007KT P6SM OVC100
     FM301800 02004KT P6SM BKN025 OVC050=



000
FTUS45 KCYS 292333
TAFCYS
TAF
KCYS 292333Z 3000/3024 18007KT P6SM SCT200
     FM300400 24008KT P6SM BKN200
     FM301800 34008KT P6SM BKN050 OVC100=



000
FTUS45 KCYS 291754 AAA
TAFLAR
TAF AMD
KLAR 291754Z 2918/3018 14005KT P6SM SCT009
      TEMPO 2918/2920 BKN009
     FM292000 13005KT P6SM SCT030
     FM300100 18007KT P6SM SCT200=



000
FTUS45 KCYS 291754 AAA
TAFLAR
TAF AMD
KLAR 291754Z 2918/3018 14005KT P6SM SCT009
      TEMPO 2918/2920 BKN009
     FM292000 13005KT P6SM SCT030
     FM300100 18007KT P6SM SCT200=



000
FTUS45 KCYS 291720
TAFCYS
TAF
KCYS 291720Z 2918/3018 28007KT P6SM SCT050
     FM291900 18007KT P6SM SKC
     FM300400 24008KT P6SM SCT200=



000
FTUS45 KCYS 291720
TAFLAR
TAF
KLAR 291720Z 2918/3018 14005KT P6SM OVC015
      TEMPO 2918/2920 BKN009
     FM292000 13005KT P6SM SCT030
     FM300100 18007KT P6SM SCT200=



000
FTUS45 KCYS 291720
TAFRWL
TAF
KRWL 291720Z 2918/3018 18005KT P6SM SCT040
     FM300000 21005KT P6SM SCT200=



000
FTUS45 KCYS 291504 AAA
TAFRWL
TAF AMD
KRWL 291504Z 2915/3012 VRB03KT P6SM SCT020 OVC025
     FM291800 18005KT P6SM SCT200=



000
FTUS45 KCYS 291503 AAA
TAFLAR
TAF AMD
KLAR 291503Z 2915/3012 VRB05KT P6SM BKN007 OVC015
     FM291800 15007KT P6SM SCT050
     FM300400 18014KT P6SM SCT200
     FM300800 VRB05KT P6SM BKN200=



000
FTUS45 KCYS 291503 AAA
TAFLAR
TAF AMD
KLAR 291503Z 2915/3012 VRB05KT P6SM BKN007 OVC015
     FM291800 15007KT P6SM SCT050
     FM300400 18014KT P6SM SCT200
     FM300800 VRB05KT P6SM BKN200=



000
FTUS45 KCYS 291141
TAFCYS
TAF
KCYS 291141Z 2912/3012 34010KT P6SM VCSH BKN070 OVC100
     FM291300 33007KT P6SM SCT070 BKN100
     FM291900 17007KT P6SM SKC
     FM300400 22010G20KT P6SM SCT200=



000
FTUS45 KCYS 291141
TAFRWL
TAF
KRWL 291141Z 2912/3012 VRB03KT P6SM SCT020 BKN035 OVC050
     FM291500 VRB03KT P6SM SCT050
     FM291800 18005KT P6SM SCT200=



000
FTUS45 KCYS 291141
TAFLAR
TAF
KLAR 291141Z 2912/3012 12007KT P6SM SCT007 BKN025 OVC035
      TEMPO 2912/2913 5SM -SN BKN007
     FM291500 15007KT P6SM SCT050
     FM300400 18014KT P6SM SCT200
     FM300800 VRB05KT P6SM BKN200=



000
FTUS45 KCYS 291141
TAFRWL
TAF
KRWL 291141Z 2912/3012 VRB03KT P6SM SCT020 BKN035 OVC050
     FM291500 VRB03KT P6SM SCT050
     FM291800 18005KT P6SM SCT200=



000
FTUS45 KCYS 291141
TAFLAR
TAF
KLAR 291141Z 2912/3012 12007KT P6SM SCT007 BKN025 OVC035
      TEMPO 2912/2913 5SM -SN BKN007
     FM291500 15007KT P6SM SCT050
     FM300400 18014KT P6SM SCT200
     FM300800 VRB05KT P6SM BKN200=



000
FTUS45 KCYS 291141
TAFCYS
TAF
KCYS 291141Z 2912/3012 34010KT P6SM VCSH BKN070 OVC100
     FM291300 33007KT P6SM SCT070 BKN100
     FM291900 17007KT P6SM SKC
     FM300400 22010G20KT P6SM SCT200=



000
FTUS45 KCYS 290946 AAC
TAFCYS
TAF AMD
KCYS 290946Z 2910/3006 34010G20KT P6SM -SHSN BKN035 OVC050
     FM291200 33007KT P6SM SCT070
     FM292100 17007KT P6SM SKC=



000
FTUS45 KCYS 290946 AAC
TAFCYS
TAF AMD
KCYS 290946Z 2910/3006 34010G20KT P6SM -SHSN BKN035 OVC050
     FM291200 33007KT P6SM SCT070
     FM292100 17007KT P6SM SKC=



000
FTUS45 KCYS 290921 AAB
TAFRWL
TAF AMD
KRWL 290921Z 2909/3006 04008KT 6SM -SN OVC011
     FM291100 VRB05KT P6SM OVC035
     FM291300 VRB02KT P6SM BKN050
     FM291500 VRB03KT P6SM SCT050
     FM291800 18005KT P6SM SKC=



000
FTUS45 KCYS 290713 AAA
TAFRWL
TAF AMD
KRWL 290713Z 2907/3006 04008KT P6SM BKN017
     FM290900 VRB05KT P6SM OVC035
     FM291100 VRB02KT P6SM BKN050
     FM291500 VRB03KT P6SM SCT050
     FM291800 18005KT P6SM SKC=



000
FTUS45 KCYS 290713 AAA
TAFRWL
TAF AMD
KRWL 290713Z 2907/3006 04008KT P6SM BKN017
     FM290900 VRB05KT P6SM OVC035
     FM291100 VRB02KT P6SM BKN050
     FM291500 VRB03KT P6SM SCT050
     FM291800 18005KT P6SM SKC=



000
FTUS45 KCYS 290604 CCA
TAFRWL
TAF COR
KRWL 290604Z 2906/3006 VRB05KT P6SM OVC035
     FM291100 VRB02KT P6SM BKN050
     FM291500 VRB03KT P6SM SCT050
     FM291800 18005KT P6SM SKC=



000
FTUS45 KCYS 290604 CCA
TAFRWL
TAF COR
KRWL 290604Z 2906/3006 VRB05KT P6SM OVC035
     FM291100 VRB02KT P6SM BKN050
     FM291500 VRB03KT P6SM SCT050
     FM291800 18005KT P6SM SKC=



000
FTUS45 KCYS 290536
TAFLAR
TAF
KLAR 290536Z 2906/3006 36006KT P6SM OVC015
     FM291000 32007KT P6SM OVC007
     FM291600 15007KT P6SM SKC=



000
FTUS45 KCYS 290536
TAFRWL
TAF
KRWL 290536Z 2906/3006 VRB05KT P6SM OVC030
     FM291100 VRB02KT P6SM BKN050
     FM291500 VRB03KT P6SM SCT050
     FM291800 18005KT P6SM SKC=



000
FTUS45 KCYS 290536
TAFCYS
TAF
KCYS 290536Z 2906/3006 34010KT P6SM OVC050
     FM291200 33007KT P6SM SCT070
     FM292100 17007KT P6SM SKC=



000
FTUS45 KCYS 290536
TAFRWL
TAF
KRWL 290536Z 2906/3006 VRB05KT P6SM OVC030
     FM291100 VRB02KT P6SM BKN050
     FM291500 VRB03KT P6SM SCT050
     FM291800 18005KT P6SM SKC=



000
FTUS45 KCYS 290536
TAFCYS
TAF
KCYS 290536Z 2906/3006 34010KT P6SM OVC050
     FM291200 33007KT P6SM SCT070
     FM292100 17007KT P6SM SKC=



000
FTUS45 KCYS 290536
TAFLAR
TAF
KLAR 290536Z 2906/3006 36006KT P6SM OVC015
     FM291000 32007KT P6SM OVC007
     FM291600 15007KT P6SM SKC=



000
FTUS45 KCYS 290420 AAA
TAFRWL
TAF AMD
KRWL 290420Z 2904/2924 VRB05KT P6SM SCT030 OVC060
     FM291500 VRB03KT P6SM SCT035
     FM291800 VRB03KT P6SM SKC=



000
FTUS45 KCYS 290420 AAA
TAFRWL
TAF AMD
KRWL 290420Z 2904/2924 VRB05KT P6SM SCT030 OVC060
     FM291500 VRB03KT P6SM SCT035
     FM291800 VRB03KT P6SM SKC=



000
FTUS45 KCYS 282339
TAFCYS
TAF
KCYS 282339Z 2900/2924 34015G25KT P6SM VCSH OVC050
     FM290300 34010KT P6SM OVC050
     FM291200 33007KT P6SM SCT070
     FM292100 17009KT P6SM SKC=



000
FTUS45 KCYS 282339
TAFCYS
TAF
KCYS 282339Z 2900/2924 34015G25KT P6SM VCSH OVC050
     FM290300 34010KT P6SM OVC050
     FM291200 33007KT P6SM SCT070
     FM292100 17009KT P6SM SKC=



000
FTUS45 KCYS 282339
TAFRWL
TAF
KRWL 282339Z 2900/2924 VRB05KT P6SM VCSH SCT025 OVC035
     FM290400 VRB05KT P6SM OVC015
     FM291500 VRB03KT P6SM SCT035
     FM291800 VRB03KT P6SM SKC=



000
FTUS45 KCYS 282339
TAFLAR
TAF
KLAR 282339Z 2900/2924 29025G38KT P6SM VCSH OVC050
     FM290300 34006KT P6SM SCT008 OVC020
     FM291000 32007KT P6SM OVC050
     FM291800 13005KT P6SM SKC=



000
FTUS45 KCYS 282339
TAFRWL
TAF
KRWL 282339Z 2900/2924 VRB05KT P6SM VCSH SCT025 OVC035
     FM290400 VRB05KT P6SM OVC015
     FM291500 VRB03KT P6SM SCT035
     FM291800 VRB03KT P6SM SKC=



000
FTUS45 KCYS 282339
TAFLAR
TAF
KLAR 282339Z 2900/2924 29025G38KT P6SM VCSH OVC050
     FM290300 34006KT P6SM SCT008 OVC020
     FM291000 32007KT P6SM OVC050
     FM291800 13005KT P6SM SKC=



000
FTUS45 KCYS 282134 AAA
TAFRWL
TAF AMD
KRWL 282134Z 2822/2918 25022G32KT P6SM VCSH SCT025 BKN035
     FM290100 VRB05KT P6SM VCSH SCT025 OVC035
     FM291500 VRB03KT P6SM SCT035=



000
FTUS45 KCYS 282134 AAA
TAFRWL
TAF AMD
KRWL 282134Z 2822/2918 25022G32KT P6SM VCSH SCT025 BKN035
     FM290100 VRB05KT P6SM VCSH SCT025 OVC035
     FM291500 VRB03KT P6SM SCT035=



000
FTUS45 KCYS 281802 CCA
TAFRWL
TAF COR
KRWL 281802Z 2818/2918 25022G32KT 6SM -SHSN BKN025
     FM290100 VRB05KT P6SM VCSH SCT025 OVC035
     FM291500 VRB03KT P6SM SCT035=



000
FTUS45 KCYS 281802 CCA
TAFRWL
TAF COR
KRWL 281802Z 2818/2918 25022G32KT 6SM -SHSN BKN025
     FM290100 VRB05KT P6SM VCSH SCT025 OVC035
     FM291500 VRB03KT P6SM SCT035=



000
FTUS45 KCYS 281739
TAFRWL
TAF
KRWL 281739Z 2818/2918 25022G32KT 6SM -SHSN SCT035 BKN100
     FM290100 VRB05KT P6SM VCSH SCT025 OVC035
     FM291500 VRB03KT P6SM SCT035=



000
FTUS45 KCYS 281739
TAFLAR
TAF
KLAR 281739Z 2818/2918 29025G38KT P6SM VCSH BKN050
     FM290100 32010KT 5SM -SHSN SCT007 OVC015
     FM291500 VRB05KT P6SM SCT035=



000
FTUS45 KCYS 281739
TAFCYS
TAF
KCYS 281739Z 2818/2918 30025G38KT P6SM VCSH BKN080
     FM282300 34015G25KT P6SM VCSH OVC045
     FM290300 34010KT P6SM OVC025
     FM291200 33007KT P6SM SCT050=



000
FTUS45 KCYS 281739
TAFCYS
TAF
KCYS 281739Z 2818/2918 30025G38KT P6SM VCSH BKN080
     FM282300 34015G25KT P6SM VCSH OVC045
     FM290300 34010KT P6SM OVC025
     FM291200 33007KT P6SM SCT050=



000
FTUS45 KCYS 281739
TAFLAR
TAF
KLAR 281739Z 2818/2918 29025G38KT P6SM VCSH BKN050
     FM290100 32010KT 5SM -SHSN SCT007 OVC015
     FM291500 VRB05KT P6SM SCT035=



000
FTUS45 KCYS 281739
TAFRWL
TAF
KRWL 281739Z 2818/2918 25022G32KT 6SM -SHSN SCT035 BKN100
     FM290100 VRB05KT P6SM VCSH SCT025 OVC035
     FM291500 VRB03KT P6SM SCT035=



    US Dept of Commerce
    National Oceanic and Atmospheric Administration
    National Weather Service
    1325 East West Highway
    Silver Spring, MD 20910
    Page Author: NWS Internet Services Team
Disclaimer
Information Quality
Credits
Glossary
Privacy Policy
Freedom of Information Act (FOIA)
About Us
Career Opportunities